<?xml version="1.0" encoding="UTF-8" standalone="no" ?>
<gpx xmlns="http://www.topografix.com/GPX/1/1" xmlns:xsi="http://www.w3.org/2001/XMLSchema-instance" xsi:schemaLocation="http://www.topografix.com/GPX/1/1 http://www.topografix.com/GPX/1/1/gpx.xsd" version="1.1" creator="VisuGPX - https://www.visugpx.com">
  <metadata>
    <name>Le relai des chasseurs - La pouraque</name>
    <desc><![CDATA[Belle petite rando, permet de pique-niquer au relai des chasseurs.
Il est de bon usage de prévenir que l\'on vient et de laisser propre en partant]]></desc>
  </metadata>
  <trk>
    <name><![CDATA[RELAI CHASSEURS]]></name>
    <trkseg>
      <trkpt lat="43.931" lon="5.18909">
        <ele>386</ele>
        <time>2013-01-18T09:10:34.000Z</time>
      </trkpt>
      <trkpt lat="43.931" lon="5.18909">
        <ele>387</ele>
        <time>2013-01-18T09:12:55.000Z</time>
      </trkpt>
      <trkpt lat="43.93099" lon="5.18911">
        <ele>384</ele>
        <time>2013-01-18T09:14:01.000Z</time>
      </trkpt>
      <trkpt lat="43.93104" lon="5.18911">
        <ele>384</ele>
        <time>2013-01-18T09:14:45.000Z</time>
      </trkpt>
      <trkpt lat="43.9311" lon="5.18908">
        <ele>384</ele>
        <time>2013-01-18T09:15:06.000Z</time>
      </trkpt>
      <trkpt lat="43.93121" lon="5.18907">
        <ele>385</ele>
        <time>2013-01-18T09:15:20.000Z</time>
      </trkpt>
      <trkpt lat="43.93135" lon="5.18911">
        <ele>385</ele>
        <time>2013-01-18T09:15:37.000Z</time>
      </trkpt>
      <trkpt lat="43.93141" lon="5.18908">
        <ele>384</ele>
        <time>2013-01-18T09:15:51.000Z</time>
      </trkpt>
      <trkpt lat="43.93186" lon="5.18916">
        <ele>385</ele>
        <time>2013-01-18T09:16:27.000Z</time>
      </trkpt>
      <trkpt lat="43.93188" lon="5.18916">
        <ele>386</ele>
        <time>2013-01-18T09:16:28.000Z</time>
      </trkpt>
      <trkpt lat="43.93233" lon="5.18925">
        <ele>386</ele>
        <time>2013-01-18T09:17:01.000Z</time>
      </trkpt>
      <trkpt lat="43.93235" lon="5.18925">
        <ele>386</ele>
        <time>2013-01-18T09:17:02.000Z</time>
      </trkpt>
      <trkpt lat="43.93248" lon="5.18921">
        <ele>386</ele>
        <time>2013-01-18T09:17:12.000Z</time>
      </trkpt>
      <trkpt lat="43.93255" lon="5.18919">
        <ele>388</ele>
        <time>2013-01-18T09:17:18.000Z</time>
      </trkpt>
      <trkpt lat="43.93299" lon="5.18904">
        <ele>392</ele>
        <time>2013-01-18T09:17:48.000Z</time>
      </trkpt>
      <trkpt lat="43.93301" lon="5.18903">
        <ele>392</ele>
        <time>2013-01-18T09:17:49.000Z</time>
      </trkpt>
      <trkpt lat="43.93323" lon="5.18894">
        <ele>393</ele>
        <time>2013-01-18T09:18:05.000Z</time>
      </trkpt>
      <trkpt lat="43.93355" lon="5.18881">
        <ele>396</ele>
        <time>2013-01-18T09:18:30.000Z</time>
      </trkpt>
      <trkpt lat="43.93373" lon="5.1888">
        <ele>398</ele>
        <time>2013-01-18T09:18:42.000Z</time>
      </trkpt>
      <trkpt lat="43.9339" lon="5.18878">
        <ele>398</ele>
        <time>2013-01-18T09:18:55.000Z</time>
      </trkpt>
      <trkpt lat="43.93395" lon="5.18871">
        <ele>399</ele>
        <time>2013-01-18T09:19:01.000Z</time>
      </trkpt>
      <trkpt lat="43.93393" lon="5.18862">
        <ele>399</ele>
        <time>2013-01-18T09:19:07.000Z</time>
      </trkpt>
      <trkpt lat="43.93385" lon="5.18853">
        <ele>399</ele>
        <time>2013-01-18T09:19:15.000Z</time>
      </trkpt>
      <trkpt lat="43.93355" lon="5.18829">
        <ele>397</ele>
        <time>2013-01-18T09:19:41.000Z</time>
      </trkpt>
      <trkpt lat="43.93351" lon="5.18822">
        <ele>397</ele>
        <time>2013-01-18T09:19:47.000Z</time>
      </trkpt>
      <trkpt lat="43.93338" lon="5.18807">
        <ele>397</ele>
        <time>2013-01-18T09:20:02.000Z</time>
      </trkpt>
      <trkpt lat="43.93333" lon="5.18801">
        <ele>397</ele>
        <time>2013-01-18T09:20:08.000Z</time>
      </trkpt>
      <trkpt lat="43.93328" lon="5.18792">
        <ele>398</ele>
        <time>2013-01-18T09:20:16.000Z</time>
      </trkpt>
      <trkpt lat="43.93327" lon="5.18785">
        <ele>400</ele>
        <time>2013-01-18T09:20:26.000Z</time>
      </trkpt>
      <trkpt lat="43.93326" lon="5.18773">
        <ele>403</ele>
        <time>2013-01-18T09:20:38.000Z</time>
      </trkpt>
      <trkpt lat="43.9333" lon="5.1877">
        <ele>404</ele>
        <time>2013-01-18T09:20:46.000Z</time>
      </trkpt>
      <trkpt lat="43.93336" lon="5.18768">
        <ele>406</ele>
        <time>2013-01-18T09:20:57.000Z</time>
      </trkpt>
      <trkpt lat="43.93342" lon="5.18767">
        <ele>407</ele>
        <time>2013-01-18T09:21:06.000Z</time>
      </trkpt>
      <trkpt lat="43.9336" lon="5.1877">
        <ele>409</ele>
        <time>2013-01-18T09:21:21.000Z</time>
      </trkpt>
      <trkpt lat="43.93386" lon="5.18783">
        <ele>413</ele>
        <time>2013-01-18T09:21:49.000Z</time>
      </trkpt>
      <trkpt lat="43.9339" lon="5.18778">
        <ele>415</ele>
        <time>2013-01-18T09:21:57.000Z</time>
      </trkpt>
      <trkpt lat="43.93387" lon="5.1877">
        <ele>416</ele>
        <time>2013-01-18T09:22:04.000Z</time>
      </trkpt>
      <trkpt lat="43.93385" lon="5.1876">
        <ele>418</ele>
        <time>2013-01-18T09:22:14.000Z</time>
      </trkpt>
      <trkpt lat="43.93399" lon="5.18754">
        <ele>418</ele>
        <time>2013-01-18T09:22:32.000Z</time>
      </trkpt>
      <trkpt lat="43.93405" lon="5.18752">
        <ele>418</ele>
        <time>2013-01-18T09:22:39.000Z</time>
      </trkpt>
      <trkpt lat="43.93419" lon="5.18747">
        <ele>420</ele>
        <time>2013-01-18T09:22:56.000Z</time>
      </trkpt>
      <trkpt lat="43.93426" lon="5.18747">
        <ele>422</ele>
        <time>2013-01-18T09:23:05.000Z</time>
      </trkpt>
      <trkpt lat="43.93446" lon="5.18755">
        <ele>426</ele>
        <time>2013-01-18T09:23:29.000Z</time>
      </trkpt>
      <trkpt lat="43.93464" lon="5.18757">
        <ele>429</ele>
        <time>2013-01-18T09:23:54.000Z</time>
      </trkpt>
      <trkpt lat="43.9347" lon="5.18757">
        <ele>431</ele>
        <time>2013-01-18T09:24:02.000Z</time>
      </trkpt>
      <trkpt lat="43.93476" lon="5.18756">
        <ele>433</ele>
        <time>2013-01-18T09:24:08.000Z</time>
      </trkpt>
      <trkpt lat="43.93505" lon="5.18754">
        <ele>437</ele>
        <time>2013-01-18T09:24:43.000Z</time>
      </trkpt>
      <trkpt lat="43.93514" lon="5.18749">
        <ele>438</ele>
        <time>2013-01-18T09:24:56.000Z</time>
      </trkpt>
      <trkpt lat="43.9352" lon="5.18748">
        <ele>439</ele>
        <time>2013-01-18T09:25:03.000Z</time>
      </trkpt>
      <trkpt lat="43.93525" lon="5.18746">
        <ele>440</ele>
        <time>2013-01-18T09:25:10.000Z</time>
      </trkpt>
      <trkpt lat="43.93536" lon="5.18737">
        <ele>443</ele>
        <time>2013-01-18T09:25:25.000Z</time>
      </trkpt>
      <trkpt lat="43.93543" lon="5.18734">
        <ele>445</ele>
        <time>2013-01-18T09:25:32.000Z</time>
      </trkpt>
      <trkpt lat="43.93555" lon="5.18734">
        <ele>447</ele>
        <time>2013-01-18T09:25:44.000Z</time>
      </trkpt>
      <trkpt lat="43.93575" lon="5.18725">
        <ele>450</ele>
        <time>2013-01-18T09:26:08.000Z</time>
      </trkpt>
      <trkpt lat="43.93581" lon="5.18724">
        <ele>451</ele>
        <time>2013-01-18T09:26:16.000Z</time>
      </trkpt>
      <trkpt lat="43.93593" lon="5.18722">
        <ele>452</ele>
        <time>2013-01-18T09:26:30.000Z</time>
      </trkpt>
      <trkpt lat="43.93599" lon="5.18724">
        <ele>453</ele>
        <time>2013-01-18T09:26:37.000Z</time>
      </trkpt>
      <trkpt lat="43.93606" lon="5.18724">
        <ele>455</ele>
        <time>2013-01-18T09:26:52.000Z</time>
      </trkpt>
      <trkpt lat="43.93612" lon="5.18721">
        <ele>457</ele>
        <time>2013-01-18T09:26:59.000Z</time>
      </trkpt>
      <trkpt lat="43.93624" lon="5.18718">
        <ele>461</ele>
        <time>2013-01-18T09:27:13.000Z</time>
      </trkpt>
      <trkpt lat="43.93639" lon="5.18715">
        <ele>464</ele>
        <time>2013-01-18T09:27:32.000Z</time>
      </trkpt>
      <trkpt lat="43.93648" lon="5.18712">
        <ele>466</ele>
        <time>2013-01-18T09:27:45.000Z</time>
      </trkpt>
      <trkpt lat="43.93667" lon="5.18708">
        <ele>468</ele>
        <time>2013-01-18T09:28:12.000Z</time>
      </trkpt>
      <trkpt lat="43.93673" lon="5.18704">
        <ele>469</ele>
        <time>2013-01-18T09:28:20.000Z</time>
      </trkpt>
      <trkpt lat="43.93685" lon="5.18702">
        <ele>471</ele>
        <time>2013-01-18T09:28:35.000Z</time>
      </trkpt>
      <trkpt lat="43.93691" lon="5.187">
        <ele>472</ele>
        <time>2013-01-18T09:28:42.000Z</time>
      </trkpt>
      <trkpt lat="43.93701" lon="5.18697">
        <ele>473</ele>
        <time>2013-01-18T09:28:53.000Z</time>
      </trkpt>
      <trkpt lat="43.93708" lon="5.18695">
        <ele>475</ele>
        <time>2013-01-18T09:29:01.000Z</time>
      </trkpt>
      <trkpt lat="43.93713" lon="5.18689">
        <ele>475</ele>
        <time>2013-01-18T09:29:07.000Z</time>
      </trkpt>
      <trkpt lat="43.93718" lon="5.18678">
        <ele>476</ele>
        <time>2013-01-18T09:29:16.000Z</time>
      </trkpt>
      <trkpt lat="43.93721" lon="5.1867">
        <ele>477</ele>
        <time>2013-01-18T09:29:22.000Z</time>
      </trkpt>
      <trkpt lat="43.93724" lon="5.18659">
        <ele>480</ele>
        <time>2013-01-18T09:29:33.000Z</time>
      </trkpt>
      <trkpt lat="43.9374" lon="5.18626">
        <ele>485</ele>
        <time>2013-01-18T09:30:01.000Z</time>
      </trkpt>
      <trkpt lat="43.93743" lon="5.18618">
        <ele>486</ele>
        <time>2013-01-18T09:30:07.000Z</time>
      </trkpt>
      <trkpt lat="43.93744" lon="5.18601">
        <ele>487</ele>
        <time>2013-01-18T09:30:19.000Z</time>
      </trkpt>
      <trkpt lat="43.9375" lon="5.18571">
        <ele>489</ele>
        <time>2013-01-18T09:30:41.000Z</time>
      </trkpt>
      <trkpt lat="43.93756" lon="5.18558">
        <ele>493</ele>
        <time>2013-01-18T09:30:54.000Z</time>
      </trkpt>
      <trkpt lat="43.93761" lon="5.18553">
        <ele>494</ele>
        <time>2013-01-18T09:30:59.000Z</time>
      </trkpt>
      <trkpt lat="43.93767" lon="5.1855">
        <ele>494</ele>
        <time>2013-01-18T09:31:04.000Z</time>
      </trkpt>
      <trkpt lat="43.93775" lon="5.18544">
        <ele>493</ele>
        <time>2013-01-18T09:31:13.000Z</time>
      </trkpt>
      <trkpt lat="43.93782" lon="5.18535">
        <ele>493</ele>
        <time>2013-01-18T09:31:22.000Z</time>
      </trkpt>
      <trkpt lat="43.93795" lon="5.18526">
        <ele>492</ele>
        <time>2013-01-18T09:31:36.000Z</time>
      </trkpt>
      <trkpt lat="43.93803" lon="5.18526">
        <ele>492</ele>
        <time>2013-01-18T09:31:42.000Z</time>
      </trkpt>
      <trkpt lat="43.93809" lon="5.18524">
        <ele>492</ele>
        <time>2013-01-18T09:31:47.000Z</time>
      </trkpt>
      <trkpt lat="43.93814" lon="5.1852">
        <ele>492</ele>
        <time>2013-01-18T09:31:53.000Z</time>
      </trkpt>
      <trkpt lat="43.93821" lon="5.18515">
        <ele>493</ele>
        <time>2013-01-18T09:31:59.000Z</time>
      </trkpt>
      <trkpt lat="43.93833" lon="5.18512">
        <ele>493</ele>
        <time>2013-01-18T09:32:11.000Z</time>
      </trkpt>
      <trkpt lat="43.93851" lon="5.18504">
        <ele>496</ele>
        <time>2013-01-18T09:32:29.000Z</time>
      </trkpt>
      <trkpt lat="43.93857" lon="5.18502">
        <ele>497</ele>
        <time>2013-01-18T09:32:35.000Z</time>
      </trkpt>
      <trkpt lat="43.93859" lon="5.18494">
        <ele>498</ele>
        <time>2013-01-18T09:32:41.000Z</time>
      </trkpt>
      <trkpt lat="43.93873" lon="5.18475">
        <ele>503</ele>
        <time>2013-01-18T09:33:05.000Z</time>
      </trkpt>
      <trkpt lat="43.93876" lon="5.18468">
        <ele>505</ele>
        <time>2013-01-18T09:33:13.000Z</time>
      </trkpt>
      <trkpt lat="43.93878" lon="5.18461">
        <ele>508</ele>
        <time>2013-01-18T09:33:22.000Z</time>
      </trkpt>
      <trkpt lat="43.93884" lon="5.18451">
        <ele>511</ele>
        <time>2013-01-18T09:33:34.000Z</time>
      </trkpt>
      <trkpt lat="43.93889" lon="5.18446">
        <ele>512</ele>
        <time>2013-01-18T09:33:41.000Z</time>
      </trkpt>
      <trkpt lat="43.93893" lon="5.18439">
        <ele>512</ele>
        <time>2013-01-18T09:33:49.000Z</time>
      </trkpt>
      <trkpt lat="43.93898" lon="5.18433">
        <ele>513</ele>
        <time>2013-01-18T09:33:57.000Z</time>
      </trkpt>
      <trkpt lat="43.93907" lon="5.18422">
        <ele>515</ele>
        <time>2013-01-18T09:34:12.000Z</time>
      </trkpt>
      <trkpt lat="43.9392" lon="5.18411">
        <ele>518</ele>
        <time>2013-01-18T09:34:31.000Z</time>
      </trkpt>
      <trkpt lat="43.93925" lon="5.18407">
        <ele>518</ele>
        <time>2013-01-18T09:34:37.000Z</time>
      </trkpt>
      <trkpt lat="43.93943" lon="5.18397">
        <ele>521</ele>
        <time>2013-01-18T09:34:58.000Z</time>
      </trkpt>
      <trkpt lat="43.93951" lon="5.18392">
        <ele>521</ele>
        <time>2013-01-18T09:35:07.000Z</time>
      </trkpt>
      <trkpt lat="43.93957" lon="5.1839">
        <ele>521</ele>
        <time>2013-01-18T09:35:13.000Z</time>
      </trkpt>
      <trkpt lat="43.93962" lon="5.18384">
        <ele>522</ele>
        <time>2013-01-18T09:35:22.000Z</time>
      </trkpt>
      <trkpt lat="43.93979" lon="5.18367">
        <ele>527</ele>
        <time>2013-01-18T09:35:47.000Z</time>
      </trkpt>
      <trkpt lat="43.93984" lon="5.18363">
        <ele>527</ele>
        <time>2013-01-18T09:35:56.000Z</time>
      </trkpt>
      <trkpt lat="43.93992" lon="5.18358">
        <ele>529</ele>
        <time>2013-01-18T09:36:09.000Z</time>
      </trkpt>
      <trkpt lat="43.93998" lon="5.18358">
        <ele>530</ele>
        <time>2013-01-18T09:36:16.000Z</time>
      </trkpt>
      <trkpt lat="43.94003" lon="5.18354">
        <ele>532</ele>
        <time>2013-01-18T09:36:26.000Z</time>
      </trkpt>
      <trkpt lat="43.94009" lon="5.18345">
        <ele>533</ele>
        <time>2013-01-18T09:36:37.000Z</time>
      </trkpt>
      <trkpt lat="43.94015" lon="5.18335">
        <ele>536</ele>
        <time>2013-01-18T09:36:50.000Z</time>
      </trkpt>
      <trkpt lat="43.94019" lon="5.18329">
        <ele>538</ele>
        <time>2013-01-18T09:36:58.000Z</time>
      </trkpt>
      <trkpt lat="43.94033" lon="5.18322">
        <ele>543</ele>
        <time>2013-01-18T09:43:13.000Z</time>
      </trkpt>
      <trkpt lat="43.94037" lon="5.18316">
        <ele>543</ele>
        <time>2013-01-18T09:43:19.000Z</time>
      </trkpt>
      <trkpt lat="43.94044" lon="5.18306">
        <ele>544</ele>
        <time>2013-01-18T09:43:32.000Z</time>
      </trkpt>
      <trkpt lat="43.94049" lon="5.183">
        <ele>545</ele>
        <time>2013-01-18T09:43:38.000Z</time>
      </trkpt>
      <trkpt lat="43.94073" lon="5.18286">
        <ele>548</ele>
        <time>2013-01-18T09:44:03.000Z</time>
      </trkpt>
      <trkpt lat="43.94088" lon="5.18286">
        <ele>551</ele>
        <time>2013-01-18T09:44:18.000Z</time>
      </trkpt>
      <trkpt lat="43.94102" lon="5.18282">
        <ele>552</ele>
        <time>2013-01-18T09:44:36.000Z</time>
      </trkpt>
      <trkpt lat="43.94112" lon="5.18281">
        <ele>556</ele>
        <time>2013-01-18T09:44:48.000Z</time>
      </trkpt>
      <trkpt lat="43.94118" lon="5.1828">
        <ele>559</ele>
        <time>2013-01-18T09:44:56.000Z</time>
      </trkpt>
      <trkpt lat="43.94124" lon="5.18278">
        <ele>561</ele>
        <time>2013-01-18T09:45:06.000Z</time>
      </trkpt>
      <trkpt lat="43.9413" lon="5.18278">
        <ele>562</ele>
        <time>2013-01-18T09:45:16.000Z</time>
      </trkpt>
      <trkpt lat="43.9414" lon="5.18279">
        <ele>564</ele>
        <time>2013-01-18T09:45:29.000Z</time>
      </trkpt>
      <trkpt lat="43.94149" lon="5.18278">
        <ele>566</ele>
        <time>2013-01-18T09:45:42.000Z</time>
      </trkpt>
      <trkpt lat="43.94154" lon="5.18275">
        <ele>567</ele>
        <time>2013-01-18T09:45:50.000Z</time>
      </trkpt>
      <trkpt lat="43.94159" lon="5.1827">
        <ele>568</ele>
        <time>2013-01-18T09:45:58.000Z</time>
      </trkpt>
      <trkpt lat="43.94171" lon="5.18266">
        <ele>570</ele>
        <time>2013-01-18T09:46:12.000Z</time>
      </trkpt>
      <trkpt lat="43.94176" lon="5.18262">
        <ele>571</ele>
        <time>2013-01-18T09:46:19.000Z</time>
      </trkpt>
      <trkpt lat="43.94181" lon="5.18258">
        <ele>574</ele>
        <time>2013-01-18T09:46:27.000Z</time>
      </trkpt>
      <trkpt lat="43.94188" lon="5.18244">
        <ele>576</ele>
        <time>2013-01-18T09:46:42.000Z</time>
      </trkpt>
      <trkpt lat="43.94193" lon="5.18237">
        <ele>577</ele>
        <time>2013-01-18T09:46:48.000Z</time>
      </trkpt>
      <trkpt lat="43.94236" lon="5.18228">
        <ele>578</ele>
        <time>2013-01-18T09:47:34.000Z</time>
      </trkpt>
      <trkpt lat="43.94242" lon="5.18225">
        <ele>578</ele>
        <time>2013-01-18T09:47:40.000Z</time>
      </trkpt>
      <trkpt lat="43.94248" lon="5.18224">
        <ele>579</ele>
        <time>2013-01-18T09:47:48.000Z</time>
      </trkpt>
      <trkpt lat="43.94263" lon="5.1822">
        <ele>581</ele>
        <time>2013-01-18T09:48:04.000Z</time>
      </trkpt>
      <trkpt lat="43.94285" lon="5.18207">
        <ele>585</ele>
        <time>2013-01-18T09:48:29.000Z</time>
      </trkpt>
      <trkpt lat="43.94302" lon="5.18198">
        <ele>587</ele>
        <time>2013-01-18T09:48:47.000Z</time>
      </trkpt>
      <trkpt lat="43.94313" lon="5.18191">
        <ele>588</ele>
        <time>2013-01-18T09:48:59.000Z</time>
      </trkpt>
      <trkpt lat="43.94335" lon="5.18187">
        <ele>590</ele>
        <time>2013-01-18T09:49:22.000Z</time>
      </trkpt>
      <trkpt lat="43.9435" lon="5.18183">
        <ele>592</ele>
        <time>2013-01-18T09:49:38.000Z</time>
      </trkpt>
      <trkpt lat="43.94387" lon="5.18174">
        <ele>597</ele>
        <time>2013-01-18T09:50:15.000Z</time>
      </trkpt>
      <trkpt lat="43.944" lon="5.18169">
        <ele>599</ele>
        <time>2013-01-18T09:50:27.000Z</time>
      </trkpt>
      <trkpt lat="43.94432" lon="5.18153">
        <ele>601</ele>
        <time>2013-01-18T09:51:00.000Z</time>
      </trkpt>
      <trkpt lat="43.94436" lon="5.18146">
        <ele>602</ele>
        <time>2013-01-18T09:51:07.000Z</time>
      </trkpt>
      <trkpt lat="43.9444" lon="5.1814">
        <ele>602</ele>
        <time>2013-01-18T09:51:13.000Z</time>
      </trkpt>
      <trkpt lat="43.94449" lon="5.18127">
        <ele>602</ele>
        <time>2013-01-18T09:51:25.000Z</time>
      </trkpt>
      <trkpt lat="43.94447" lon="5.18119">
        <ele>601</ele>
        <time>2013-01-18T09:51:31.000Z</time>
      </trkpt>
      <trkpt lat="43.94409" lon="5.18">
        <ele>603</ele>
        <time>2013-01-18T09:56:37.000Z</time>
      </trkpt>
      <trkpt lat="43.94409" lon="5.17986">
        <ele>607</ele>
        <time>2013-01-18T10:12:44.000Z</time>
      </trkpt>
      <trkpt lat="43.94416" lon="5.17975">
        <ele>608</ele>
        <time>2013-01-18T10:13:07.000Z</time>
      </trkpt>
      <trkpt lat="43.94421" lon="5.17959">
        <ele>610</ele>
        <time>2013-01-18T10:13:20.000Z</time>
      </trkpt>
      <trkpt lat="43.94425" lon="5.17944">
        <ele>611</ele>
        <time>2013-01-18T10:13:33.000Z</time>
      </trkpt>
      <trkpt lat="43.94428" lon="5.17937">
        <ele>612</ele>
        <time>2013-01-18T10:13:39.000Z</time>
      </trkpt>
      <trkpt lat="43.94432" lon="5.17925">
        <ele>612</ele>
        <time>2013-01-18T10:13:49.000Z</time>
      </trkpt>
      <trkpt lat="43.94442" lon="5.17894">
        <ele>611</ele>
        <time>2013-01-18T10:14:14.000Z</time>
      </trkpt>
      <trkpt lat="43.94445" lon="5.17875">
        <ele>612</ele>
        <time>2013-01-18T10:14:26.000Z</time>
      </trkpt>
      <trkpt lat="43.94447" lon="5.17866">
        <ele>612</ele>
        <time>2013-01-18T10:14:32.000Z</time>
      </trkpt>
      <trkpt lat="43.94458" lon="5.17819">
        <ele>612</ele>
        <time>2013-01-18T10:15:09.000Z</time>
      </trkpt>
      <trkpt lat="43.9446" lon="5.17795">
        <ele>610</ele>
        <time>2013-01-18T10:15:27.000Z</time>
      </trkpt>
      <trkpt lat="43.94459" lon="5.17783">
        <ele>609</ele>
        <time>2013-01-18T10:15:36.000Z</time>
      </trkpt>
      <trkpt lat="43.94468" lon="5.17756">
        <ele>608</ele>
        <time>2013-01-18T10:15:56.000Z</time>
      </trkpt>
      <trkpt lat="43.94473" lon="5.17745">
        <ele>608</ele>
        <time>2013-01-18T10:16:05.000Z</time>
      </trkpt>
      <trkpt lat="43.94485" lon="5.17732">
        <ele>608</ele>
        <time>2013-01-18T10:16:20.000Z</time>
      </trkpt>
      <trkpt lat="43.94496" lon="5.1772">
        <ele>608</ele>
        <time>2013-01-18T10:16:32.000Z</time>
      </trkpt>
      <trkpt lat="43.945" lon="5.17712">
        <ele>608</ele>
        <time>2013-01-18T10:16:38.000Z</time>
      </trkpt>
      <trkpt lat="43.94508" lon="5.17697">
        <ele>606</ele>
        <time>2013-01-18T10:16:50.000Z</time>
      </trkpt>
      <trkpt lat="43.94521" lon="5.17678">
        <ele>604</ele>
        <time>2013-01-18T10:17:08.000Z</time>
      </trkpt>
      <trkpt lat="43.94524" lon="5.17665">
        <ele>606</ele>
        <time>2013-01-18T10:17:17.000Z</time>
      </trkpt>
      <trkpt lat="43.94528" lon="5.17654">
        <ele>608</ele>
        <time>2013-01-18T10:17:26.000Z</time>
      </trkpt>
      <trkpt lat="43.94546" lon="5.17622">
        <ele>610</ele>
        <time>2013-01-18T10:17:52.000Z</time>
      </trkpt>
      <trkpt lat="43.9455" lon="5.17615">
        <ele>610</ele>
        <time>2013-01-18T10:17:58.000Z</time>
      </trkpt>
      <trkpt lat="43.94582" lon="5.1757">
        <ele>610</ele>
        <time>2013-01-18T10:18:35.000Z</time>
      </trkpt>
      <trkpt lat="43.94583" lon="5.17568">
        <ele>610</ele>
        <time>2013-01-18T10:18:36.000Z</time>
      </trkpt>
      <trkpt lat="43.94595" lon="5.1755">
        <ele>611</ele>
        <time>2013-01-18T10:18:51.000Z</time>
      </trkpt>
      <trkpt lat="43.94598" lon="5.17537">
        <ele>611</ele>
        <time>2013-01-18T10:18:59.000Z</time>
      </trkpt>
      <trkpt lat="43.94606" lon="5.17515">
        <ele>610</ele>
        <time>2013-01-18T10:19:14.000Z</time>
      </trkpt>
      <trkpt lat="43.94613" lon="5.17498">
        <ele>610</ele>
        <time>2013-01-18T10:19:25.000Z</time>
      </trkpt>
      <trkpt lat="43.94622" lon="5.17472">
        <ele>610</ele>
        <time>2013-01-18T10:19:43.000Z</time>
      </trkpt>
      <trkpt lat="43.94624" lon="5.17464">
        <ele>610</ele>
        <time>2013-01-18T10:19:48.000Z</time>
      </trkpt>
      <trkpt lat="43.94625" lon="5.17456">
        <ele>610</ele>
        <time>2013-01-18T10:19:53.000Z</time>
      </trkpt>
      <trkpt lat="43.9463" lon="5.17434">
        <ele>610</ele>
        <time>2013-01-18T10:20:07.000Z</time>
      </trkpt>
      <trkpt lat="43.94651" lon="5.17378">
        <ele>609</ele>
        <time>2013-01-18T10:20:47.000Z</time>
      </trkpt>
      <trkpt lat="43.94652" lon="5.17376">
        <ele>609</ele>
        <time>2013-01-18T10:20:48.000Z</time>
      </trkpt>
      <trkpt lat="43.94673" lon="5.17319">
        <ele>610</ele>
        <time>2013-01-18T10:21:27.000Z</time>
      </trkpt>
      <trkpt lat="43.94673" lon="5.17318">
        <ele>610</ele>
        <time>2013-01-18T10:21:28.000Z</time>
      </trkpt>
      <trkpt lat="43.94675" lon="5.17311">
        <ele>610</ele>
        <time>2013-01-18T10:21:33.000Z</time>
      </trkpt>
      <trkpt lat="43.94676" lon="5.17299">
        <ele>612</ele>
        <time>2013-01-18T10:21:42.000Z</time>
      </trkpt>
      <trkpt lat="43.94683" lon="5.1727">
        <ele>613</ele>
        <time>2013-01-18T10:22:03.000Z</time>
      </trkpt>
      <trkpt lat="43.94686" lon="5.17262">
        <ele>614</ele>
        <time>2013-01-18T10:22:09.000Z</time>
      </trkpt>
      <trkpt lat="43.94711" lon="5.1721">
        <ele>612</ele>
        <time>2013-01-18T10:22:50.000Z</time>
      </trkpt>
      <trkpt lat="43.94712" lon="5.17208">
        <ele>612</ele>
        <time>2013-01-18T10:22:51.000Z</time>
      </trkpt>
      <trkpt lat="43.94727" lon="5.17176">
        <ele>615</ele>
        <time>2013-01-18T10:23:14.000Z</time>
      </trkpt>
      <trkpt lat="43.94741" lon="5.17151">
        <ele>616</ele>
        <time>2013-01-18T10:23:33.000Z</time>
      </trkpt>
      <trkpt lat="43.94778" lon="5.17115">
        <ele>612</ele>
        <time>2013-01-18T10:24:12.000Z</time>
      </trkpt>
      <trkpt lat="43.9478" lon="5.17114">
        <ele>611</ele>
        <time>2013-01-18T10:24:13.000Z</time>
      </trkpt>
      <trkpt lat="43.94788" lon="5.17105">
        <ele>612</ele>
        <time>2013-01-18T10:24:22.000Z</time>
      </trkpt>
      <trkpt lat="43.94803" lon="5.17086">
        <ele>615</ele>
        <time>2013-01-18T10:24:40.000Z</time>
      </trkpt>
      <trkpt lat="43.94818" lon="5.17077">
        <ele>615</ele>
        <time>2013-01-18T10:24:54.000Z</time>
      </trkpt>
      <trkpt lat="43.94834" lon="5.1707">
        <ele>613</ele>
        <time>2013-01-18T10:25:08.000Z</time>
      </trkpt>
      <trkpt lat="43.94844" lon="5.17066">
        <ele>611</ele>
        <time>2013-01-18T10:25:16.000Z</time>
      </trkpt>
      <trkpt lat="43.94852" lon="5.17064">
        <ele>610</ele>
        <time>2013-01-18T10:25:24.000Z</time>
      </trkpt>
      <trkpt lat="43.94858" lon="5.17059">
        <ele>610</ele>
        <time>2013-01-18T10:25:30.000Z</time>
      </trkpt>
      <trkpt lat="43.94864" lon="5.17055">
        <ele>609</ele>
        <time>2013-01-18T10:25:36.000Z</time>
      </trkpt>
      <trkpt lat="43.94869" lon="5.17053">
        <ele>607</ele>
        <time>2013-01-18T10:25:43.000Z</time>
      </trkpt>
      <trkpt lat="43.94884" lon="5.17036">
        <ele>600</ele>
        <time>2013-01-18T10:26:10.000Z</time>
      </trkpt>
      <trkpt lat="43.94891" lon="5.17029">
        <ele>598</ele>
        <time>2013-01-18T10:26:20.000Z</time>
      </trkpt>
      <trkpt lat="43.94905" lon="5.17023">
        <ele>593</ele>
        <time>2013-01-18T10:26:44.000Z</time>
      </trkpt>
      <trkpt lat="43.94914" lon="5.17018">
        <ele>590</ele>
        <time>2013-01-18T10:27:01.000Z</time>
      </trkpt>
      <trkpt lat="43.94933" lon="5.17014">
        <ele>585</ele>
        <time>2013-01-18T10:27:23.000Z</time>
      </trkpt>
      <trkpt lat="43.94952" lon="5.1702">
        <ele>583</ele>
        <time>2013-01-18T10:27:41.000Z</time>
      </trkpt>
      <trkpt lat="43.94957" lon="5.17014">
        <ele>585</ele>
        <time>2013-01-18T10:27:47.000Z</time>
      </trkpt>
      <trkpt lat="43.94962" lon="5.17009">
        <ele>587</ele>
        <time>2013-01-18T10:27:53.000Z</time>
      </trkpt>
      <trkpt lat="43.94972" lon="5.17009">
        <ele>588</ele>
        <time>2013-01-18T10:28:03.000Z</time>
      </trkpt>
      <trkpt lat="43.94989" lon="5.17004">
        <ele>584</ele>
        <time>2013-01-18T10:28:18.000Z</time>
      </trkpt>
      <trkpt lat="43.94995" lon="5.17006">
        <ele>582</ele>
        <time>2013-01-18T10:28:23.000Z</time>
      </trkpt>
      <trkpt lat="43.95002" lon="5.17006">
        <ele>582</ele>
        <time>2013-01-18T10:28:29.000Z</time>
      </trkpt>
      <trkpt lat="43.95018" lon="5.17004">
        <ele>585</ele>
        <time>2013-01-18T10:28:42.000Z</time>
      </trkpt>
      <trkpt lat="43.95024" lon="5.17001">
        <ele>585</ele>
        <time>2013-01-18T10:28:48.000Z</time>
      </trkpt>
      <trkpt lat="43.95037" lon="5.17002">
        <ele>586</ele>
        <time>2013-01-18T10:29:00.000Z</time>
      </trkpt>
      <trkpt lat="43.95051" lon="5.16999">
        <ele>589</ele>
        <time>2013-01-18T10:29:12.000Z</time>
      </trkpt>
      <trkpt lat="43.95075" lon="5.16993">
        <ele>590</ele>
        <time>2013-01-18T10:29:32.000Z</time>
      </trkpt>
      <trkpt lat="43.95081" lon="5.16987">
        <ele>590</ele>
        <time>2013-01-18T10:29:38.000Z</time>
      </trkpt>
      <trkpt lat="43.95088" lon="5.1698">
        <ele>591</ele>
        <time>2013-01-18T10:29:47.000Z</time>
      </trkpt>
      <trkpt lat="43.95092" lon="5.16975">
        <ele>589</ele>
        <time>2013-01-18T10:29:55.000Z</time>
      </trkpt>
      <trkpt lat="43.95097" lon="5.16969">
        <ele>585</ele>
        <time>2013-01-18T10:30:02.000Z</time>
      </trkpt>
      <trkpt lat="43.951" lon="5.16962">
        <ele>582</ele>
        <time>2013-01-18T10:30:08.000Z</time>
      </trkpt>
      <trkpt lat="43.95102" lon="5.16952">
        <ele>580</ele>
        <time>2013-01-18T10:30:16.000Z</time>
      </trkpt>
      <trkpt lat="43.95105" lon="5.16939">
        <ele>579</ele>
        <time>2013-01-18T10:30:28.000Z</time>
      </trkpt>
      <trkpt lat="43.9511" lon="5.16916">
        <ele>578</ele>
        <time>2013-01-18T10:30:43.000Z</time>
      </trkpt>
      <trkpt lat="43.95115" lon="5.16905">
        <ele>579</ele>
        <time>2013-01-18T10:30:52.000Z</time>
      </trkpt>
      <trkpt lat="43.95116" lon="5.16896">
        <ele>580</ele>
        <time>2013-01-18T10:30:58.000Z</time>
      </trkpt>
      <trkpt lat="43.95115" lon="5.16852">
        <ele>580</ele>
        <time>2013-01-18T10:31:53.000Z</time>
      </trkpt>
      <trkpt lat="43.95113" lon="5.16837">
        <ele>577</ele>
        <time>2013-01-18T10:32:08.000Z</time>
      </trkpt>
      <trkpt lat="43.95115" lon="5.16821">
        <ele>577</ele>
        <time>2013-01-18T10:32:20.000Z</time>
      </trkpt>
      <trkpt lat="43.95124" lon="5.16789">
        <ele>580</ele>
        <time>2013-01-18T10:32:45.000Z</time>
      </trkpt>
      <trkpt lat="43.95126" lon="5.16782">
        <ele>580</ele>
        <time>2013-01-18T10:32:51.000Z</time>
      </trkpt>
      <trkpt lat="43.95128" lon="5.16774">
        <ele>581</ele>
        <time>2013-01-18T10:32:58.000Z</time>
      </trkpt>
      <trkpt lat="43.95134" lon="5.16747">
        <ele>583</ele>
        <time>2013-01-18T10:33:20.000Z</time>
      </trkpt>
      <trkpt lat="43.95123" lon="5.16696">
        <ele>585</ele>
        <time>2013-01-18T10:34:05.000Z</time>
      </trkpt>
      <trkpt lat="43.95129" lon="5.1668">
        <ele>585</ele>
        <time>2013-01-18T10:34:16.000Z</time>
      </trkpt>
      <trkpt lat="43.95144" lon="5.16656">
        <ele>585</ele>
        <time>2013-01-18T10:34:35.000Z</time>
      </trkpt>
      <trkpt lat="43.9515" lon="5.16644">
        <ele>585</ele>
        <time>2013-01-18T10:34:44.000Z</time>
      </trkpt>
      <trkpt lat="43.95151" lon="5.16635">
        <ele>585</ele>
        <time>2013-01-18T10:34:50.000Z</time>
      </trkpt>
      <trkpt lat="43.95153" lon="5.16616">
        <ele>585</ele>
        <time>2013-01-18T10:35:02.000Z</time>
      </trkpt>
      <trkpt lat="43.95158" lon="5.16606">
        <ele>586</ele>
        <time>2013-01-18T10:35:11.000Z</time>
      </trkpt>
      <trkpt lat="43.95164" lon="5.16605">
        <ele>587</ele>
        <time>2013-01-18T10:35:17.000Z</time>
      </trkpt>
      <trkpt lat="43.95173" lon="5.16612">
        <ele>588</ele>
        <time>2013-01-18T10:35:26.000Z</time>
      </trkpt>
      <trkpt lat="43.9521" lon="5.16636">
        <ele>593</ele>
        <time>2013-01-18T10:36:01.000Z</time>
      </trkpt>
      <trkpt lat="43.95254" lon="5.16654">
        <ele>593</ele>
        <time>2013-01-18T10:36:40.000Z</time>
      </trkpt>
      <trkpt lat="43.95255" lon="5.16655">
        <ele>593</ele>
        <time>2013-01-18T10:36:41.000Z</time>
      </trkpt>
      <trkpt lat="43.95262" lon="5.16657">
        <ele>594</ele>
        <time>2013-01-18T10:36:48.000Z</time>
      </trkpt>
      <trkpt lat="43.95289" lon="5.16666">
        <ele>598</ele>
        <time>2013-01-18T10:37:15.000Z</time>
      </trkpt>
      <trkpt lat="43.95311" lon="5.16671">
        <ele>602</ele>
        <time>2013-01-18T10:37:37.000Z</time>
      </trkpt>
      <trkpt lat="43.9532" lon="5.16666">
        <ele>603</ele>
        <time>2013-01-18T10:37:45.000Z</time>
      </trkpt>
      <trkpt lat="43.9533" lon="5.16663">
        <ele>603</ele>
        <time>2013-01-18T10:37:54.000Z</time>
      </trkpt>
      <trkpt lat="43.9535" lon="5.16665">
        <ele>605</ele>
        <time>2013-01-18T10:38:11.000Z</time>
      </trkpt>
      <trkpt lat="43.95385" lon="5.16649">
        <ele>605</ele>
        <time>2013-01-18T10:38:42.000Z</time>
      </trkpt>
      <trkpt lat="43.954" lon="5.1664">
        <ele>606</ele>
        <time>2013-01-18T10:38:55.000Z</time>
      </trkpt>
      <trkpt lat="43.95427" lon="5.16635">
        <ele>605</ele>
        <time>2013-01-18T10:39:17.000Z</time>
      </trkpt>
      <trkpt lat="43.95436" lon="5.1664">
        <ele>605</ele>
        <time>2013-01-18T10:39:26.000Z</time>
      </trkpt>
      <trkpt lat="43.95448" lon="5.16657">
        <ele>603</ele>
        <time>2013-01-18T10:39:41.000Z</time>
      </trkpt>
      <trkpt lat="43.95469" lon="5.16674">
        <ele>602</ele>
        <time>2013-01-18T10:40:02.000Z</time>
      </trkpt>
      <trkpt lat="43.95473" lon="5.16681">
        <ele>601</ele>
        <time>2013-01-18T10:40:08.000Z</time>
      </trkpt>
      <trkpt lat="43.95476" lon="5.16695">
        <ele>601</ele>
        <time>2013-01-18T10:40:17.000Z</time>
      </trkpt>
      <trkpt lat="43.95473" lon="5.16708">
        <ele>599</ele>
        <time>2013-01-18T10:40:25.000Z</time>
      </trkpt>
      <trkpt lat="43.9545" lon="5.16763">
        <ele>598</ele>
        <time>2013-01-18T10:41:01.000Z</time>
      </trkpt>
      <trkpt lat="43.95449" lon="5.16765">
        <ele>598</ele>
        <time>2013-01-18T10:41:02.000Z</time>
      </trkpt>
      <trkpt lat="43.95443" lon="5.16785">
        <ele>598</ele>
        <time>2013-01-18T10:41:15.000Z</time>
      </trkpt>
      <trkpt lat="43.95439" lon="5.16805">
        <ele>598</ele>
        <time>2013-01-18T10:41:27.000Z</time>
      </trkpt>
      <trkpt lat="43.95438" lon="5.1682">
        <ele>598</ele>
        <time>2013-01-18T10:41:36.000Z</time>
      </trkpt>
      <trkpt lat="43.95439" lon="5.16834">
        <ele>598</ele>
        <time>2013-01-18T10:41:44.000Z</time>
      </trkpt>
      <trkpt lat="43.95445" lon="5.16857">
        <ele>599</ele>
        <time>2013-01-18T10:41:58.000Z</time>
      </trkpt>
      <trkpt lat="43.95449" lon="5.16868">
        <ele>599</ele>
        <time>2013-01-18T10:42:05.000Z</time>
      </trkpt>
      <trkpt lat="43.95456" lon="5.16878">
        <ele>598</ele>
        <time>2013-01-18T10:42:13.000Z</time>
      </trkpt>
      <trkpt lat="43.95488" lon="5.16896">
        <ele>600</ele>
        <time>2013-01-18T10:42:41.000Z</time>
      </trkpt>
      <trkpt lat="43.9551" lon="5.16907">
        <ele>599</ele>
        <time>2013-01-18T10:43:00.000Z</time>
      </trkpt>
      <trkpt lat="43.95531" lon="5.16928">
        <ele>600</ele>
        <time>2013-01-18T10:43:20.000Z</time>
      </trkpt>
      <trkpt lat="43.95533" lon="5.16934">
        <ele>600</ele>
        <time>2013-01-18T10:43:24.000Z</time>
      </trkpt>
      <trkpt lat="43.95535" lon="5.16943">
        <ele>600</ele>
        <time>2013-01-18T10:43:29.000Z</time>
      </trkpt>
      <trkpt lat="43.95528" lon="5.16976">
        <ele>597</ele>
        <time>2013-01-18T10:43:49.000Z</time>
      </trkpt>
      <trkpt lat="43.95522" lon="5.16981">
        <ele>597</ele>
        <time>2013-01-18T10:43:54.000Z</time>
      </trkpt>
      <trkpt lat="43.95504" lon="5.1698">
        <ele>595</ele>
        <time>2013-01-18T10:44:09.000Z</time>
      </trkpt>
      <trkpt lat="43.95484" lon="5.16974">
        <ele>594</ele>
        <time>2013-01-18T10:44:26.000Z</time>
      </trkpt>
      <trkpt lat="43.95453" lon="5.16976">
        <ele>592</ele>
        <time>2013-01-18T10:44:50.000Z</time>
      </trkpt>
      <trkpt lat="43.95446" lon="5.16983">
        <ele>591</ele>
        <time>2013-01-18T10:44:57.000Z</time>
      </trkpt>
      <trkpt lat="43.95442" lon="5.1699">
        <ele>589</ele>
        <time>2013-01-18T10:45:20.000Z</time>
      </trkpt>
      <trkpt lat="43.95438" lon="5.16999">
        <ele>588</ele>
        <time>2013-01-18T10:45:56.000Z</time>
      </trkpt>
      <trkpt lat="43.95434" lon="5.17027">
        <ele>588</ele>
        <time>2013-01-18T10:46:15.000Z</time>
      </trkpt>
      <trkpt lat="43.95436" lon="5.17063">
        <ele>591</ele>
        <time>2013-01-18T10:46:39.000Z</time>
      </trkpt>
      <trkpt lat="43.95439" lon="5.17075">
        <ele>592</ele>
        <time>2013-01-18T10:46:47.000Z</time>
      </trkpt>
      <trkpt lat="43.95446" lon="5.17092">
        <ele>593</ele>
        <time>2013-01-18T10:46:59.000Z</time>
      </trkpt>
      <trkpt lat="43.95454" lon="5.17117">
        <ele>600</ele>
        <time>2013-01-18T10:47:18.000Z</time>
      </trkpt>
      <trkpt lat="43.95465" lon="5.17151">
        <ele>604</ele>
        <time>2013-01-18T10:47:42.000Z</time>
      </trkpt>
      <trkpt lat="43.95467" lon="5.1716">
        <ele>605</ele>
        <time>2013-01-18T10:47:48.000Z</time>
      </trkpt>
      <trkpt lat="43.95474" lon="5.17213">
        <ele>606</ele>
        <time>2013-01-18T10:48:23.000Z</time>
      </trkpt>
      <trkpt lat="43.95472" lon="5.1724">
        <ele>606</ele>
        <time>2013-01-18T10:48:36.000Z</time>
      </trkpt>
      <trkpt lat="43.9547" lon="5.17264">
        <ele>606</ele>
        <time>2013-01-18T10:48:51.000Z</time>
      </trkpt>
      <trkpt lat="43.95472" lon="5.17271">
        <ele>605</ele>
        <time>2013-01-18T10:49:01.000Z</time>
      </trkpt>
      <trkpt lat="43.95472" lon="5.17334">
        <ele>610</ele>
        <time>2013-01-18T10:49:41.000Z</time>
      </trkpt>
      <trkpt lat="43.95472" lon="5.17336">
        <ele>610</ele>
        <time>2013-01-18T10:49:42.000Z</time>
      </trkpt>
      <trkpt lat="43.95473" lon="5.17355">
        <ele>611</ele>
        <time>2013-01-18T10:49:55.000Z</time>
      </trkpt>
      <trkpt lat="43.9547" lon="5.17418">
        <ele>613</ele>
        <time>2013-01-18T10:50:31.000Z</time>
      </trkpt>
      <trkpt lat="43.95469" lon="5.17419">
        <ele>613</ele>
        <time>2013-01-18T10:50:32.000Z</time>
      </trkpt>
      <trkpt lat="43.95467" lon="5.17427">
        <ele>613</ele>
        <time>2013-01-18T10:50:37.000Z</time>
      </trkpt>
      <trkpt lat="43.9546" lon="5.17443">
        <ele>615</ele>
        <time>2013-01-18T10:50:51.000Z</time>
      </trkpt>
      <trkpt lat="43.95455" lon="5.17459">
        <ele>615</ele>
        <time>2013-01-18T10:51:05.000Z</time>
      </trkpt>
      <trkpt lat="43.95448" lon="5.17473">
        <ele>616</ele>
        <time>2013-01-18T10:51:17.000Z</time>
      </trkpt>
      <trkpt lat="43.95435" lon="5.175">
        <ele>617</ele>
        <time>2013-01-18T10:51:37.000Z</time>
      </trkpt>
      <trkpt lat="43.9542" lon="5.1752">
        <ele>617</ele>
        <time>2013-01-18T10:51:53.000Z</time>
      </trkpt>
      <trkpt lat="43.9541" lon="5.17531">
        <ele>617</ele>
        <time>2013-01-18T10:52:03.000Z</time>
      </trkpt>
      <trkpt lat="43.95388" lon="5.17555">
        <ele>618</ele>
        <time>2013-01-18T10:52:25.000Z</time>
      </trkpt>
      <trkpt lat="43.95376" lon="5.17572">
        <ele>619</ele>
        <time>2013-01-18T10:52:39.000Z</time>
      </trkpt>
      <trkpt lat="43.95359" lon="5.17608">
        <ele>618</ele>
        <time>2013-01-18T10:53:03.000Z</time>
      </trkpt>
      <trkpt lat="43.95357" lon="5.17616">
        <ele>617</ele>
        <time>2013-01-18T10:53:43.000Z</time>
      </trkpt>
      <trkpt lat="43.95337" lon="5.17664">
        <ele>618</ele>
        <time>2013-01-18T10:54:10.000Z</time>
      </trkpt>
      <trkpt lat="43.9533" lon="5.17674">
        <ele>618</ele>
        <time>2013-01-18T10:54:16.000Z</time>
      </trkpt>
      <trkpt lat="43.95314" lon="5.17687">
        <ele>619</ele>
        <time>2013-01-18T10:54:28.000Z</time>
      </trkpt>
      <trkpt lat="43.95272" lon="5.17712">
        <ele>620</ele>
        <time>2013-01-18T10:55:01.000Z</time>
      </trkpt>
      <trkpt lat="43.95271" lon="5.17713">
        <ele>620</ele>
        <time>2013-01-18T10:55:02.000Z</time>
      </trkpt>
      <trkpt lat="43.95267" lon="5.17717">
        <ele>620</ele>
        <time>2013-01-18T10:55:05.000Z</time>
      </trkpt>
      <trkpt lat="43.95263" lon="5.17726">
        <ele>620</ele>
        <time>2013-01-18T10:55:11.000Z</time>
      </trkpt>
      <trkpt lat="43.95261" lon="5.17738">
        <ele>620</ele>
        <time>2013-01-18T10:55:18.000Z</time>
      </trkpt>
      <trkpt lat="43.95263" lon="5.17754">
        <ele>620</ele>
        <time>2013-01-18T10:55:27.000Z</time>
      </trkpt>
      <trkpt lat="43.95264" lon="5.17771">
        <ele>620</ele>
        <time>2013-01-18T10:55:37.000Z</time>
      </trkpt>
      <trkpt lat="43.95265" lon="5.17779">
        <ele>621</ele>
        <time>2013-01-18T10:55:41.000Z</time>
      </trkpt>
      <trkpt lat="43.95268" lon="5.17798">
        <ele>622</ele>
        <time>2013-01-18T10:55:52.000Z</time>
      </trkpt>
      <trkpt lat="43.95271" lon="5.17812">
        <ele>622</ele>
        <time>2013-01-18T10:56:00.000Z</time>
      </trkpt>
      <trkpt lat="43.95273" lon="5.17829">
        <ele>622</ele>
        <time>2013-01-18T10:56:09.000Z</time>
      </trkpt>
      <trkpt lat="43.95271" lon="5.17863">
        <ele>622</ele>
        <time>2013-01-18T10:56:27.000Z</time>
      </trkpt>
      <trkpt lat="43.95267" lon="5.17882">
        <ele>622</ele>
        <time>2013-01-18T10:56:37.000Z</time>
      </trkpt>
      <trkpt lat="43.95265" lon="5.17889">
        <ele>622</ele>
        <time>2013-01-18T10:56:41.000Z</time>
      </trkpt>
      <trkpt lat="43.95263" lon="5.17897">
        <ele>622</ele>
        <time>2013-01-18T10:56:45.000Z</time>
      </trkpt>
      <trkpt lat="43.95259" lon="5.17923">
        <ele>621</ele>
        <time>2013-01-18T10:57:00.000Z</time>
      </trkpt>
      <trkpt lat="43.95256" lon="5.17964">
        <ele>621</ele>
        <time>2013-01-18T10:57:22.000Z</time>
      </trkpt>
      <trkpt lat="43.95255" lon="5.17972">
        <ele>621</ele>
        <time>2013-01-18T10:57:26.000Z</time>
      </trkpt>
      <trkpt lat="43.95246" lon="5.18017">
        <ele>620</ele>
        <time>2013-01-18T10:57:51.000Z</time>
      </trkpt>
      <trkpt lat="43.95238" lon="5.18071">
        <ele>618</ele>
        <time>2013-01-18T10:58:20.000Z</time>
      </trkpt>
      <trkpt lat="43.95232" lon="5.18101">
        <ele>618</ele>
        <time>2013-01-18T10:58:37.000Z</time>
      </trkpt>
      <trkpt lat="43.95227" lon="5.18116">
        <ele>618</ele>
        <time>2013-01-18T10:58:46.000Z</time>
      </trkpt>
      <trkpt lat="43.95221" lon="5.18119">
        <ele>617</ele>
        <time>2013-01-18T10:58:51.000Z</time>
      </trkpt>
      <trkpt lat="43.95175" lon="5.1812">
        <ele>617</ele>
        <time>2013-01-18T10:59:27.000Z</time>
      </trkpt>
      <trkpt lat="43.95174" lon="5.18121">
        <ele>616</ele>
        <time>2013-01-18T10:59:28.000Z</time>
      </trkpt>
      <trkpt lat="43.95128" lon="5.18119">
        <ele>617</ele>
        <time>2013-01-18T11:00:02.000Z</time>
      </trkpt>
      <trkpt lat="43.95126" lon="5.1812">
        <ele>617</ele>
        <time>2013-01-18T11:00:03.000Z</time>
      </trkpt>
      <trkpt lat="43.9508" lon="5.18118">
        <ele>618</ele>
        <time>2013-01-18T11:00:35.000Z</time>
      </trkpt>
      <trkpt lat="43.95079" lon="5.18118">
        <ele>618</ele>
        <time>2013-01-18T11:00:36.000Z</time>
      </trkpt>
      <trkpt lat="43.9504" lon="5.18117">
        <ele>613</ele>
        <time>2013-01-18T11:01:08.000Z</time>
      </trkpt>
      <trkpt lat="43.95027" lon="5.18117">
        <ele>614</ele>
        <time>2013-01-18T11:01:20.000Z</time>
      </trkpt>
      <trkpt lat="43.94981" lon="5.18113">
        <ele>614</ele>
        <time>2013-01-18T11:01:53.000Z</time>
      </trkpt>
      <trkpt lat="43.94979" lon="5.18112">
        <ele>614</ele>
        <time>2013-01-18T11:01:54.000Z</time>
      </trkpt>
      <trkpt lat="43.94958" lon="5.18109">
        <ele>617</ele>
        <time>2013-01-18T11:02:12.000Z</time>
      </trkpt>
      <trkpt lat="43.94918" lon="5.18094">
        <ele>615</ele>
        <time>2013-01-18T11:02:42.000Z</time>
      </trkpt>
      <trkpt lat="43.94891" lon="5.1809">
        <ele>611</ele>
        <time>2013-01-18T11:03:01.000Z</time>
      </trkpt>
      <trkpt lat="43.94868" lon="5.18083">
        <ele>610</ele>
        <time>2013-01-18T11:03:21.000Z</time>
      </trkpt>
      <trkpt lat="43.94852" lon="5.18059">
        <ele>610</ele>
        <time>2013-01-18T11:07:25.000Z</time>
      </trkpt>
      <trkpt lat="43.94849" lon="5.18058">
        <ele>606</ele>
        <time>2013-01-18T13:20:33.000Z</time>
      </trkpt>
      <trkpt lat="43.94839" lon="5.18063">
        <ele>608</ele>
        <time>2013-01-18T13:20:51.000Z</time>
      </trkpt>
      <trkpt lat="43.94833" lon="5.18069">
        <ele>608</ele>
        <time>2013-01-18T13:20:56.000Z</time>
      </trkpt>
      <trkpt lat="43.94827" lon="5.18077">
        <ele>607</ele>
        <time>2013-01-18T13:21:03.000Z</time>
      </trkpt>
      <trkpt lat="43.94817" lon="5.18081">
        <ele>607</ele>
        <time>2013-01-18T13:21:10.000Z</time>
      </trkpt>
      <trkpt lat="43.94792" lon="5.18084">
        <ele>605</ele>
        <time>2013-01-18T13:21:30.000Z</time>
      </trkpt>
      <trkpt lat="43.94768" lon="5.18092">
        <ele>604</ele>
        <time>2013-01-18T13:21:50.000Z</time>
      </trkpt>
      <trkpt lat="43.94723" lon="5.18098">
        <ele>600</ele>
        <time>2013-01-18T13:22:28.000Z</time>
      </trkpt>
      <trkpt lat="43.94722" lon="5.18098">
        <ele>600</ele>
        <time>2013-01-18T13:22:29.000Z</time>
      </trkpt>
      <trkpt lat="43.94704" lon="5.18098">
        <ele>601</ele>
        <time>2013-01-18T13:22:42.000Z</time>
      </trkpt>
      <trkpt lat="43.94668" lon="5.18096">
        <ele>604</ele>
        <time>2013-01-18T13:23:28.000Z</time>
      </trkpt>
      <trkpt lat="43.94661" lon="5.18099">
        <ele>612</ele>
        <time>2013-01-18T13:24:10.000Z</time>
      </trkpt>
      <trkpt lat="43.94614" lon="5.18093">
        <ele>604</ele>
        <time>2013-01-18T13:24:29.000Z</time>
      </trkpt>
      <trkpt lat="43.94612" lon="5.18093">
        <ele>604</ele>
        <time>2013-01-18T13:24:30.000Z</time>
      </trkpt>
      <trkpt lat="43.94601" lon="5.18094">
        <ele>602</ele>
        <time>2013-01-18T13:24:36.000Z</time>
      </trkpt>
      <trkpt lat="43.94575" lon="5.18094">
        <ele>601</ele>
        <time>2013-01-18T13:24:49.000Z</time>
      </trkpt>
      <trkpt lat="43.94529" lon="5.18097">
        <ele>601</ele>
        <time>2013-01-18T13:25:03.000Z</time>
      </trkpt>
      <trkpt lat="43.94527" lon="5.18097">
        <ele>601</ele>
        <time>2013-01-18T13:25:04.000Z</time>
      </trkpt>
      <trkpt lat="43.9451" lon="5.181">
        <ele>601</ele>
        <time>2013-01-18T13:25:12.000Z</time>
      </trkpt>
      <trkpt lat="43.94503" lon="5.18102">
        <ele>600</ele>
        <time>2013-01-18T13:25:17.000Z</time>
      </trkpt>
      <trkpt lat="43.94494" lon="5.18105">
        <ele>600</ele>
        <time>2013-01-18T13:25:25.000Z</time>
      </trkpt>
      <trkpt lat="43.94476" lon="5.18108">
        <ele>598</ele>
        <time>2013-01-18T13:25:38.000Z</time>
      </trkpt>
      <trkpt lat="43.94464" lon="5.18118">
        <ele>597</ele>
        <time>2013-01-18T13:25:50.000Z</time>
      </trkpt>
      <trkpt lat="43.94451" lon="5.18128">
        <ele>597</ele>
        <time>2013-01-18T13:26:05.000Z</time>
      </trkpt>
      <trkpt lat="43.94444" lon="5.18137">
        <ele>594</ele>
        <time>2013-01-18T13:26:15.000Z</time>
      </trkpt>
      <trkpt lat="43.94438" lon="5.18146">
        <ele>593</ele>
        <time>2013-01-18T13:26:24.000Z</time>
      </trkpt>
      <trkpt lat="43.94423" lon="5.18153">
        <ele>597</ele>
        <time>2013-01-18T13:26:38.000Z</time>
      </trkpt>
      <trkpt lat="43.9438" lon="5.18173">
        <ele>591</ele>
        <time>2013-01-18T13:27:22.000Z</time>
      </trkpt>
      <trkpt lat="43.94379" lon="5.18173">
        <ele>591</ele>
        <time>2013-01-18T13:27:23.000Z</time>
      </trkpt>
      <trkpt lat="43.9437" lon="5.18175">
        <ele>590</ele>
        <time>2013-01-18T13:27:31.000Z</time>
      </trkpt>
      <trkpt lat="43.9434" lon="5.18181">
        <ele>589</ele>
        <time>2013-01-18T13:27:58.000Z</time>
      </trkpt>
      <trkpt lat="43.94334" lon="5.18182">
        <ele>589</ele>
        <time>2013-01-18T13:28:05.000Z</time>
      </trkpt>
      <trkpt lat="43.94324" lon="5.18183">
        <ele>588</ele>
        <time>2013-01-18T13:28:14.000Z</time>
      </trkpt>
      <trkpt lat="43.94319" lon="5.18186">
        <ele>587</ele>
        <time>2013-01-18T13:28:20.000Z</time>
      </trkpt>
      <trkpt lat="43.94306" lon="5.18191">
        <ele>586</ele>
        <time>2013-01-18T13:28:32.000Z</time>
      </trkpt>
      <trkpt lat="43.94292" lon="5.18198">
        <ele>586</ele>
        <time>2013-01-18T13:28:46.000Z</time>
      </trkpt>
      <trkpt lat="43.94276" lon="5.18205">
        <ele>584</ele>
        <time>2013-01-18T13:29:01.000Z</time>
      </trkpt>
      <trkpt lat="43.94265" lon="5.18212">
        <ele>583</ele>
        <time>2013-01-18T13:29:15.000Z</time>
      </trkpt>
      <trkpt lat="43.94255" lon="5.18216">
        <ele>581</ele>
        <time>2013-01-18T13:29:26.000Z</time>
      </trkpt>
      <trkpt lat="43.94245" lon="5.18219">
        <ele>577</ele>
        <time>2013-01-18T13:29:39.000Z</time>
      </trkpt>
      <trkpt lat="43.94239" lon="5.18223">
        <ele>575</ele>
        <time>2013-01-18T13:29:46.000Z</time>
      </trkpt>
      <trkpt lat="43.94234" lon="5.18226">
        <ele>574</ele>
        <time>2013-01-18T13:29:52.000Z</time>
      </trkpt>
      <trkpt lat="43.9419" lon="5.1823">
        <ele>574</ele>
        <time>2013-01-18T13:30:38.000Z</time>
      </trkpt>
      <trkpt lat="43.94189" lon="5.1823">
        <ele>574</ele>
        <time>2013-01-18T13:30:39.000Z</time>
      </trkpt>
      <trkpt lat="43.94181" lon="5.18231">
        <ele>574</ele>
        <time>2013-01-18T13:30:48.000Z</time>
      </trkpt>
      <trkpt lat="43.94174" lon="5.18233">
        <ele>573</ele>
        <time>2013-01-18T13:30:54.000Z</time>
      </trkpt>
      <trkpt lat="43.94159" lon="5.18233">
        <ele>571</ele>
        <time>2013-01-18T13:31:11.000Z</time>
      </trkpt>
      <trkpt lat="43.94149" lon="5.18233">
        <ele>571</ele>
        <time>2013-01-18T13:31:20.000Z</time>
      </trkpt>
      <trkpt lat="43.94136" lon="5.18233">
        <ele>570</ele>
        <time>2013-01-18T13:31:34.000Z</time>
      </trkpt>
      <trkpt lat="43.94128" lon="5.18236">
        <ele>568</ele>
        <time>2013-01-18T13:31:43.000Z</time>
      </trkpt>
      <trkpt lat="43.94114" lon="5.18242">
        <ele>566</ele>
        <time>2013-01-18T13:32:00.000Z</time>
      </trkpt>
      <trkpt lat="43.94098" lon="5.18237">
        <ele>566</ele>
        <time>2013-01-18T13:32:20.000Z</time>
      </trkpt>
      <trkpt lat="43.94088" lon="5.18235">
        <ele>563</ele>
        <time>2013-01-18T13:32:29.000Z</time>
      </trkpt>
      <trkpt lat="43.94078" lon="5.18234">
        <ele>561</ele>
        <time>2013-01-18T13:32:38.000Z</time>
      </trkpt>
      <trkpt lat="43.94044" lon="5.18238">
        <ele>560</ele>
        <time>2013-01-18T13:33:10.000Z</time>
      </trkpt>
      <trkpt lat="43.94038" lon="5.18241">
        <ele>560</ele>
        <time>2013-01-18T13:33:16.000Z</time>
      </trkpt>
      <trkpt lat="43.94029" lon="5.18245">
        <ele>560</ele>
        <time>2013-01-18T13:33:25.000Z</time>
      </trkpt>
      <trkpt lat="43.94023" lon="5.18248">
        <ele>559</ele>
        <time>2013-01-18T13:33:30.000Z</time>
      </trkpt>
      <trkpt lat="43.94014" lon="5.18249">
        <ele>559</ele>
        <time>2013-01-18T13:33:39.000Z</time>
      </trkpt>
      <trkpt lat="43.94007" lon="5.1825">
        <ele>559</ele>
        <time>2013-01-18T13:33:46.000Z</time>
      </trkpt>
      <trkpt lat="43.93999" lon="5.18248">
        <ele>561</ele>
        <time>2013-01-18T13:33:57.000Z</time>
      </trkpt>
      <trkpt lat="43.93994" lon="5.18251">
        <ele>561</ele>
        <time>2013-01-18T13:34:05.000Z</time>
      </trkpt>
      <trkpt lat="43.93988" lon="5.18252">
        <ele>561</ele>
        <time>2013-01-18T13:34:11.000Z</time>
      </trkpt>
      <trkpt lat="43.93975" lon="5.18253">
        <ele>561</ele>
        <time>2013-01-18T13:34:23.000Z</time>
      </trkpt>
      <trkpt lat="43.93969" lon="5.18255">
        <ele>560</ele>
        <time>2013-01-18T13:34:30.000Z</time>
      </trkpt>
      <trkpt lat="43.93961" lon="5.18257">
        <ele>560</ele>
        <time>2013-01-18T13:34:41.000Z</time>
      </trkpt>
      <trkpt lat="43.93954" lon="5.18257">
        <ele>561</ele>
        <time>2013-01-18T13:34:49.000Z</time>
      </trkpt>
      <trkpt lat="43.93945" lon="5.18261">
        <ele>564</ele>
        <time>2013-01-18T13:34:59.000Z</time>
      </trkpt>
      <trkpt lat="43.93932" lon="5.18263">
        <ele>565</ele>
        <time>2013-01-18T13:35:13.000Z</time>
      </trkpt>
      <trkpt lat="43.93926" lon="5.18263">
        <ele>564</ele>
        <time>2013-01-18T13:35:20.000Z</time>
      </trkpt>
      <trkpt lat="43.93902" lon="5.1826">
        <ele>566</ele>
        <time>2013-01-18T13:35:38.000Z</time>
      </trkpt>
      <trkpt lat="43.93861" lon="5.18245">
        <ele>564</ele>
        <time>2013-01-18T13:36:14.000Z</time>
      </trkpt>
      <trkpt lat="43.93848" lon="5.18238">
        <ele>563</ele>
        <time>2013-01-18T13:36:26.000Z</time>
      </trkpt>
      <trkpt lat="43.93812" lon="5.18228">
        <ele>559</ele>
        <time>2013-01-18T13:36:59.000Z</time>
      </trkpt>
      <trkpt lat="43.93792" lon="5.1823">
        <ele>555</ele>
        <time>2013-01-18T13:37:17.000Z</time>
      </trkpt>
      <trkpt lat="43.93785" lon="5.18228">
        <ele>555</ele>
        <time>2013-01-18T13:37:24.000Z</time>
      </trkpt>
      <trkpt lat="43.9376" lon="5.18222">
        <ele>555</ele>
        <time>2013-01-18T13:37:46.000Z</time>
      </trkpt>
      <trkpt lat="43.93751" lon="5.18218">
        <ele>555</ele>
        <time>2013-01-18T13:37:53.000Z</time>
      </trkpt>
      <trkpt lat="43.93739" lon="5.18213">
        <ele>553</ele>
        <time>2013-01-18T13:38:06.000Z</time>
      </trkpt>
      <trkpt lat="43.93729" lon="5.18212">
        <ele>554</ele>
        <time>2013-01-18T13:38:16.000Z</time>
      </trkpt>
      <trkpt lat="43.93705" lon="5.18213">
        <ele>550</ele>
        <time>2013-01-18T13:38:38.000Z</time>
      </trkpt>
      <trkpt lat="43.93659" lon="5.18208">
        <ele>543</ele>
        <time>2013-01-18T13:39:21.000Z</time>
      </trkpt>
      <trkpt lat="43.93658" lon="5.18208">
        <ele>542</ele>
        <time>2013-01-18T13:39:22.000Z</time>
      </trkpt>
      <trkpt lat="43.93646" lon="5.18205">
        <ele>540</ele>
        <time>2013-01-18T13:39:34.000Z</time>
      </trkpt>
      <trkpt lat="43.93602" lon="5.18191">
        <ele>536</ele>
        <time>2013-01-18T13:40:18.000Z</time>
      </trkpt>
      <trkpt lat="43.936" lon="5.1819">
        <ele>536</ele>
        <time>2013-01-18T13:40:19.000Z</time>
      </trkpt>
      <trkpt lat="43.93592" lon="5.1819">
        <ele>534</ele>
        <time>2013-01-18T13:40:29.000Z</time>
      </trkpt>
      <trkpt lat="43.93586" lon="5.18188">
        <ele>532</ele>
        <time>2013-01-18T13:40:36.000Z</time>
      </trkpt>
      <trkpt lat="43.93575" lon="5.18183">
        <ele>529</ele>
        <time>2013-01-18T13:40:50.000Z</time>
      </trkpt>
      <trkpt lat="43.93566" lon="5.18181">
        <ele>529</ele>
        <time>2013-01-18T13:41:01.000Z</time>
      </trkpt>
      <trkpt lat="43.93559" lon="5.18182">
        <ele>528</ele>
        <time>2013-01-18T13:41:10.000Z</time>
      </trkpt>
      <trkpt lat="43.93554" lon="5.1818">
        <ele>528</ele>
        <time>2013-01-18T13:41:18.000Z</time>
      </trkpt>
      <trkpt lat="43.93556" lon="5.18171">
        <ele>529</ele>
        <time>2013-01-18T13:41:26.000Z</time>
      </trkpt>
      <trkpt lat="43.93554" lon="5.18164">
        <ele>530</ele>
        <time>2013-01-18T13:41:33.000Z</time>
      </trkpt>
      <trkpt lat="43.93541" lon="5.18128">
        <ele>527</ele>
        <time>2013-01-18T13:42:01.000Z</time>
      </trkpt>
      <trkpt lat="43.93538" lon="5.18122">
        <ele>526</ele>
        <time>2013-01-18T13:42:06.000Z</time>
      </trkpt>
      <trkpt lat="43.93535" lon="5.18112">
        <ele>525</ele>
        <time>2013-01-18T13:42:13.000Z</time>
      </trkpt>
      <trkpt lat="43.93538" lon="5.18104">
        <ele>524</ele>
        <time>2013-01-18T13:42:19.000Z</time>
      </trkpt>
      <trkpt lat="43.93536" lon="5.18097">
        <ele>523</ele>
        <time>2013-01-18T13:42:24.000Z</time>
      </trkpt>
      <trkpt lat="43.93526" lon="5.18092">
        <ele>523</ele>
        <time>2013-01-18T13:42:32.000Z</time>
      </trkpt>
      <trkpt lat="43.93518" lon="5.18085">
        <ele>523</ele>
        <time>2013-01-18T13:42:40.000Z</time>
      </trkpt>
      <trkpt lat="43.93513" lon="5.18076">
        <ele>523</ele>
        <time>2013-01-18T13:42:50.000Z</time>
      </trkpt>
      <trkpt lat="43.93507" lon="5.18073">
        <ele>523</ele>
        <time>2013-01-18T13:42:56.000Z</time>
      </trkpt>
      <trkpt lat="43.93493" lon="5.18067">
        <ele>524</ele>
        <time>2013-01-18T13:43:09.000Z</time>
      </trkpt>
      <trkpt lat="43.93486" lon="5.1806">
        <ele>524</ele>
        <time>2013-01-18T13:43:17.000Z</time>
      </trkpt>
      <trkpt lat="43.93472" lon="5.18044">
        <ele>522</ele>
        <time>2013-01-18T13:43:32.000Z</time>
      </trkpt>
      <trkpt lat="43.93468" lon="5.18039">
        <ele>522</ele>
        <time>2013-01-18T13:43:37.000Z</time>
      </trkpt>
      <trkpt lat="43.93462" lon="5.1803">
        <ele>521</ele>
        <time>2013-01-18T13:43:45.000Z</time>
      </trkpt>
      <trkpt lat="43.93448" lon="5.18015">
        <ele>520</ele>
        <time>2013-01-18T13:43:59.000Z</time>
      </trkpt>
      <trkpt lat="43.93438" lon="5.18016">
        <ele>519</ele>
        <time>2013-01-18T13:44:08.000Z</time>
      </trkpt>
      <trkpt lat="43.93433" lon="5.1802">
        <ele>519</ele>
        <time>2013-01-18T13:44:14.000Z</time>
      </trkpt>
      <trkpt lat="43.93422" lon="5.18027">
        <ele>519</ele>
        <time>2013-01-18T13:44:23.000Z</time>
      </trkpt>
      <trkpt lat="43.93417" lon="5.18031">
        <ele>519</ele>
        <time>2013-01-18T13:44:28.000Z</time>
      </trkpt>
      <trkpt lat="43.9341" lon="5.18042">
        <ele>518</ele>
        <time>2013-01-18T13:44:36.000Z</time>
      </trkpt>
      <trkpt lat="43.93402" lon="5.18049">
        <ele>517</ele>
        <time>2013-01-18T13:44:44.000Z</time>
      </trkpt>
      <trkpt lat="43.93384" lon="5.18067">
        <ele>515</ele>
        <time>2013-01-18T13:45:03.000Z</time>
      </trkpt>
      <trkpt lat="43.9337" lon="5.18077">
        <ele>513</ele>
        <time>2013-01-18T13:45:20.000Z</time>
      </trkpt>
      <trkpt lat="43.93365" lon="5.18083">
        <ele>512</ele>
        <time>2013-01-18T13:45:26.000Z</time>
      </trkpt>
      <trkpt lat="43.93359" lon="5.18087">
        <ele>511</ele>
        <time>2013-01-18T13:45:32.000Z</time>
      </trkpt>
      <trkpt lat="43.93354" lon="5.18092">
        <ele>511</ele>
        <time>2013-01-18T13:45:37.000Z</time>
      </trkpt>
      <trkpt lat="43.93345" lon="5.18098">
        <ele>510</ele>
        <time>2013-01-18T13:45:45.000Z</time>
      </trkpt>
      <trkpt lat="43.93327" lon="5.18099">
        <ele>507</ele>
        <time>2013-01-18T13:46:04.000Z</time>
      </trkpt>
      <trkpt lat="43.9332" lon="5.18099">
        <ele>506</ele>
        <time>2013-01-18T13:46:10.000Z</time>
      </trkpt>
      <trkpt lat="43.93304" lon="5.18096">
        <ele>506</ele>
        <time>2013-01-18T13:46:26.000Z</time>
      </trkpt>
      <trkpt lat="43.93289" lon="5.18103">
        <ele>507</ele>
        <time>2013-01-18T13:46:38.000Z</time>
      </trkpt>
      <trkpt lat="43.93284" lon="5.18106">
        <ele>508</ele>
        <time>2013-01-18T13:46:44.000Z</time>
      </trkpt>
      <trkpt lat="43.93278" lon="5.18115">
        <ele>508</ele>
        <time>2013-01-18T13:46:54.000Z</time>
      </trkpt>
      <trkpt lat="43.93276" lon="5.18123">
        <ele>507</ele>
        <time>2013-01-18T13:47:00.000Z</time>
      </trkpt>
      <trkpt lat="43.93252" lon="5.18143">
        <ele>506</ele>
        <time>2013-01-18T13:47:22.000Z</time>
      </trkpt>
      <trkpt lat="43.93243" lon="5.18148">
        <ele>506</ele>
        <time>2013-01-18T13:47:30.000Z</time>
      </trkpt>
      <trkpt lat="43.93217" lon="5.18175">
        <ele>506</ele>
        <time>2013-01-18T13:47:36.000Z</time>
      </trkpt>
      <trkpt lat="43.93198" lon="5.18196">
        <ele>501</ele>
        <time>2013-01-18T13:48:13.000Z</time>
      </trkpt>
      <trkpt lat="43.93149" lon="5.18232">
        <ele>500</ele>
        <time>2013-01-18T13:48:19.000Z</time>
      </trkpt>
      <trkpt lat="43.93125" lon="5.18223">
        <ele>498</ele>
        <time>2013-01-18T13:48:58.000Z</time>
      </trkpt>
      <trkpt lat="43.93066" lon="5.18214">
        <ele>496</ele>
        <time>2013-01-18T13:49:13.000Z</time>
      </trkpt>
      <trkpt lat="43.92981" lon="5.18219">
        <ele>493</ele>
        <time>2013-01-18T13:49:31.000Z</time>
      </trkpt>
      <trkpt lat="43.92934" lon="5.18196">
        <ele>493</ele>
        <time>2013-01-18T13:50:04.000Z</time>
      </trkpt>
      <trkpt lat="43.92907" lon="5.18148">
        <ele>492</ele>
        <time>2013-01-18T13:50:18.000Z</time>
      </trkpt>
      <trkpt lat="43.9287" lon="5.18129">
        <ele>488</ele>
        <time>2013-01-18T13:51:00.000Z</time>
      </trkpt>
      <trkpt lat="43.9284" lon="5.18113">
        <ele>488</ele>
        <time>2013-01-18T13:51:01.000Z</time>
      </trkpt>
      <trkpt lat="43.92818" lon="5.18108">
        <ele>487</ele>
        <time>2013-01-18T13:51:11.000Z</time>
      </trkpt>
      <trkpt lat="43.92788" lon="5.18097">
        <ele>482</ele>
        <time>2013-01-18T13:51:48.000Z</time>
      </trkpt>
      <trkpt lat="43.92624" lon="5.17952">
        <ele>476</ele>
        <time>2013-01-18T13:52:23.000Z</time>
      </trkpt>
      <trkpt lat="43.9262" lon="5.17942">
        <ele>474</ele>
        <time>2013-01-18T13:52:34.000Z</time>
      </trkpt>
      <trkpt lat="43.92602" lon="5.17943">
        <ele>472</ele>
        <time>2013-01-18T13:52:49.000Z</time>
      </trkpt>
      <trkpt lat="43.92553" lon="5.17884">
        <ele>471</ele>
        <time>2013-01-18T13:52:58.000Z</time>
      </trkpt>
      <trkpt lat="43.92531" lon="5.17886">
        <ele>468</ele>
        <time>2013-01-18T13:53:23.000Z</time>
      </trkpt>
      <trkpt lat="43.92493" lon="5.17902">
        <ele>466</ele>
        <time>2013-01-18T13:53:31.000Z</time>
      </trkpt>
      <trkpt lat="43.92439" lon="5.17888">
        <ele>464</ele>
        <time>2013-01-18T13:53:40.000Z</time>
      </trkpt>
      <trkpt lat="43.92341" lon="5.1789">
        <ele>463</ele>
        <time>2013-01-18T13:53:45.000Z</time>
      </trkpt>
      <trkpt lat="43.92323" lon="5.17943">
        <ele>462</ele>
        <time>2013-01-18T13:54:00.000Z</time>
      </trkpt>
      <trkpt lat="43.92279" lon="5.17999">
        <ele>463</ele>
        <time>2013-01-18T13:54:20.000Z</time>
      </trkpt>
      <trkpt lat="43.92357" lon="5.18055">
        <ele>461</ele>
        <time>2013-01-18T13:54:32.000Z</time>
      </trkpt>
      <trkpt lat="43.92395" lon="5.18123">
        <ele>459</ele>
        <time>2013-01-18T13:54:38.000Z</time>
      </trkpt>
      <trkpt lat="43.9245" lon="5.18172">
        <ele>457</ele>
        <time>2013-01-18T13:54:43.000Z</time>
      </trkpt>
      <trkpt lat="43.92491" lon="5.18166">
        <ele>455</ele>
        <time>2013-01-18T13:54:59.000Z</time>
      </trkpt>
      <trkpt lat="43.92519" lon="5.18164">
        <ele>453</ele>
        <time>2013-01-18T13:55:06.000Z</time>
      </trkpt>
      <trkpt lat="43.92566" lon="5.18194">
        <ele>449</ele>
        <time>2013-01-18T13:55:21.000Z</time>
      </trkpt>
      <trkpt lat="43.92574" lon="5.1822">
        <ele>448</ele>
        <time>2013-01-18T13:55:30.000Z</time>
      </trkpt>
      <trkpt lat="43.92616" lon="5.18259">
        <ele>446</ele>
        <time>2013-01-18T13:55:43.000Z</time>
      </trkpt>
      <trkpt lat="43.92668" lon="5.18315">
        <ele>443</ele>
        <time>2013-01-18T13:56:02.000Z</time>
      </trkpt>
      <trkpt lat="43.92734" lon="5.18334">
        <ele>441</ele>
        <time>2013-01-18T13:56:11.000Z</time>
      </trkpt>
      <trkpt lat="43.92761" lon="5.18346">
        <ele>436</ele>
        <time>2013-01-18T13:56:32.000Z</time>
      </trkpt>
      <trkpt lat="43.92801" lon="5.18379">
        <ele>432</ele>
        <time>2013-01-18T13:56:49.000Z</time>
      </trkpt>
      <trkpt lat="43.92873" lon="5.18409">
        <ele>431</ele>
        <time>2013-01-18T13:56:56.000Z</time>
      </trkpt>
      <trkpt lat="43.92914" lon="5.18443">
        <ele>429</ele>
        <time>2013-01-18T13:57:02.000Z</time>
      </trkpt>
      <trkpt lat="43.92993" lon="5.18447">
        <ele>428</ele>
        <time>2013-01-18T13:57:11.000Z</time>
      </trkpt>
      <trkpt lat="43.93032" lon="5.18452">
        <ele>427</ele>
        <time>2013-01-18T13:57:18.000Z</time>
      </trkpt>
      <trkpt lat="43.93073" lon="5.18462">
        <ele>430</ele>
        <time>2013-01-18T13:58:05.000Z</time>
      </trkpt>
      <trkpt lat="43.93096" lon="5.18469">
        <ele>429</ele>
        <time>2013-01-18T13:58:12.000Z</time>
      </trkpt>
      <trkpt lat="43.93106" lon="5.18477">
        <ele>429</ele>
        <time>2013-01-18T13:58:20.000Z</time>
      </trkpt>
      <trkpt lat="43.9313" lon="5.18447">
        <ele>430</ele>
        <time>2013-01-18T13:58:26.000Z</time>
      </trkpt>
      <trkpt lat="43.93141" lon="5.18428">
        <ele>431</ele>
        <time>2013-01-18T13:58:47.000Z</time>
      </trkpt>
      <trkpt lat="43.93157" lon="5.18436">
        <ele>428</ele>
        <time>2013-01-18T13:59:16.000Z</time>
      </trkpt>
      <trkpt lat="43.93185" lon="5.18471">
        <ele>427</ele>
        <time>2013-01-18T13:59:35.000Z</time>
      </trkpt>
      <trkpt lat="43.93214" lon="5.18493">
        <ele>426</ele>
        <time>2013-01-18T13:59:41.000Z</time>
      </trkpt>
      <trkpt lat="43.93218" lon="5.18502">
        <ele>426</ele>
        <time>2013-01-18T13:59:47.000Z</time>
      </trkpt>
      <trkpt lat="43.93217" lon="5.1852">
        <ele>425</ele>
        <time>2013-01-18T13:59:56.000Z</time>
      </trkpt>
      <trkpt lat="43.93217" lon="5.18547">
        <ele>425</ele>
        <time>2013-01-18T14:00:05.000Z</time>
      </trkpt>
      <trkpt lat="43.9323" lon="5.18585">
        <ele>421</ele>
        <time>2013-01-18T14:00:31.000Z</time>
      </trkpt>
      <trkpt lat="43.93235" lon="5.18595">
        <ele>420</ele>
        <time>2013-01-18T14:00:39.000Z</time>
      </trkpt>
      <trkpt lat="43.93244" lon="5.18602">
        <ele>421</ele>
        <time>2013-01-18T14:00:45.000Z</time>
      </trkpt>
      <trkpt lat="43.93265" lon="5.18611">
        <ele>423</ele>
        <time>2013-01-18T14:01:12.000Z</time>
      </trkpt>
      <trkpt lat="43.93275" lon="5.18621">
        <ele>422</ele>
        <time>2013-01-18T14:01:17.000Z</time>
      </trkpt>
      <trkpt lat="43.93285" lon="5.18634">
        <ele>422</ele>
        <time>2013-01-18T14:01:39.000Z</time>
      </trkpt>
      <trkpt lat="43.93291" lon="5.18643">
        <ele>422</ele>
        <time>2013-01-18T14:02:03.000Z</time>
      </trkpt>
      <trkpt lat="43.93315" lon="5.18661">
        <ele>420</ele>
        <time>2013-01-18T14:02:26.000Z</time>
      </trkpt>
      <trkpt lat="43.93319" lon="5.18667">
        <ele>423</ele>
        <time>2013-01-18T14:02:32.000Z</time>
      </trkpt>
      <trkpt lat="43.93327" lon="5.18677">
        <ele>427</ele>
        <time>2013-01-18T14:02:40.000Z</time>
      </trkpt>
      <trkpt lat="43.93333" lon="5.1868">
        <ele>429</ele>
        <time>2013-01-18T14:02:44.000Z</time>
      </trkpt>
      <trkpt lat="43.93354" lon="5.18701">
        <ele>427</ele>
        <time>2013-01-18T14:03:04.000Z</time>
      </trkpt>
      <trkpt lat="43.93364" lon="5.18712">
        <ele>422</ele>
        <time>2013-01-18T14:03:15.000Z</time>
      </trkpt>
      <trkpt lat="43.93367" lon="5.18718">
        <ele>420</ele>
        <time>2013-01-18T14:03:20.000Z</time>
      </trkpt>
      <trkpt lat="43.93371" lon="5.18731">
        <ele>416</ele>
        <time>2013-01-18T14:03:28.000Z</time>
      </trkpt>
      <trkpt lat="43.93373" lon="5.18738">
        <ele>414</ele>
        <time>2013-01-18T14:03:32.000Z</time>
      </trkpt>
      <trkpt lat="43.93373" lon="5.18746">
        <ele>414</ele>
        <time>2013-01-18T14:03:38.000Z</time>
      </trkpt>
      <trkpt lat="43.93369" lon="5.1875">
        <ele>414</ele>
        <time>2013-01-18T14:03:43.000Z</time>
      </trkpt>
      <trkpt lat="43.93362" lon="5.1875">
        <ele>415</ele>
        <time>2013-01-18T14:03:49.000Z</time>
      </trkpt>
      <trkpt lat="43.93356" lon="5.18752">
        <ele>415</ele>
        <time>2013-01-18T14:03:55.000Z</time>
      </trkpt>
      <trkpt lat="43.93341" lon="5.18758">
        <ele>410</ele>
        <time>2013-01-18T14:04:11.000Z</time>
      </trkpt>
      <trkpt lat="43.93335" lon="5.1876">
        <ele>406</ele>
        <time>2013-01-18T14:04:17.000Z</time>
      </trkpt>
      <trkpt lat="43.9333" lon="5.18762">
        <ele>404</ele>
        <time>2013-01-18T14:04:23.000Z</time>
      </trkpt>
      <trkpt lat="43.93329" lon="5.18771">
        <ele>402</ele>
        <time>2013-01-18T14:04:29.000Z</time>
      </trkpt>
      <trkpt lat="43.93329" lon="5.1878">
        <ele>399</ele>
        <time>2013-01-18T14:04:35.000Z</time>
      </trkpt>
      <trkpt lat="43.9333" lon="5.18789">
        <ele>397</ele>
        <time>2013-01-18T14:04:41.000Z</time>
      </trkpt>
      <trkpt lat="43.93334" lon="5.18793">
        <ele>395</ele>
        <time>2013-01-18T14:04:47.000Z</time>
      </trkpt>
      <trkpt lat="43.9334" lon="5.18805">
        <ele>395</ele>
        <time>2013-01-18T14:04:56.000Z</time>
      </trkpt>
      <trkpt lat="43.93345" lon="5.18811">
        <ele>395</ele>
        <time>2013-01-18T14:05:02.000Z</time>
      </trkpt>
      <trkpt lat="43.93353" lon="5.18819">
        <ele>393</ele>
        <time>2013-01-18T14:05:11.000Z</time>
      </trkpt>
      <trkpt lat="43.93363" lon="5.18836">
        <ele>391</ele>
        <time>2013-01-18T14:05:24.000Z</time>
      </trkpt>
      <trkpt lat="43.93385" lon="5.18853">
        <ele>392</ele>
        <time>2013-01-18T14:05:43.000Z</time>
      </trkpt>
      <trkpt lat="43.93393" lon="5.18862">
        <ele>392</ele>
        <time>2013-01-18T14:05:51.000Z</time>
      </trkpt>
      <trkpt lat="43.93391" lon="5.18863">
        <ele>396</ele>
        <time>2013-01-18T14:07:43.000Z</time>
      </trkpt>
      <trkpt lat="43.9339" lon="5.18871">
        <ele>395</ele>
        <time>2013-01-18T14:08:43.000Z</time>
      </trkpt>
      <trkpt lat="43.93385" lon="5.18875">
        <ele>394</ele>
        <time>2013-01-18T14:08:49.000Z</time>
      </trkpt>
      <trkpt lat="43.93373" lon="5.18877">
        <ele>392</ele>
        <time>2013-01-18T14:09:05.000Z</time>
      </trkpt>
      <trkpt lat="43.9336" lon="5.18877">
        <ele>391</ele>
        <time>2013-01-18T14:09:23.000Z</time>
      </trkpt>
      <trkpt lat="43.9335" lon="5.1888">
        <ele>390</ele>
        <time>2013-01-18T14:09:33.000Z</time>
      </trkpt>
      <trkpt lat="43.93307" lon="5.18899">
        <ele>384</ele>
        <time>2013-01-18T14:10:13.000Z</time>
      </trkpt>
      <trkpt lat="43.93306" lon="5.18899">
        <ele>384</ele>
        <time>2013-01-18T14:10:14.000Z</time>
      </trkpt>
      <trkpt lat="43.93285" lon="5.18905">
        <ele>382</ele>
        <time>2013-01-18T14:10:32.000Z</time>
      </trkpt>
      <trkpt lat="43.9326" lon="5.18914">
        <ele>379</ele>
        <time>2013-01-18T14:10:54.000Z</time>
      </trkpt>
      <trkpt lat="43.93237" lon="5.18919">
        <ele>380</ele>
        <time>2013-01-18T14:11:14.000Z</time>
      </trkpt>
      <trkpt lat="43.93202" lon="5.18911">
        <ele>391</ele>
        <time>2013-01-18T14:11:44.000Z</time>
      </trkpt>
      <trkpt lat="43.93167" lon="5.18905">
        <ele>384</ele>
        <time>2013-01-18T14:12:12.000Z</time>
      </trkpt>
      <trkpt lat="43.93122" lon="5.18905">
        <ele>379</ele>
        <time>2013-01-18T14:12:48.000Z</time>
      </trkpt>
      <trkpt lat="43.93121" lon="5.18904">
        <ele>379</ele>
        <time>2013-01-18T14:12:49.000Z</time>
      </trkpt>
      <trkpt lat="43.9309" lon="5.18907">
        <ele>380</ele>
        <time>2013-01-18T14:13:56.000Z</time>
      </trkpt>
      <trkpt lat="43.93086" lon="5.18908">
        <ele>381</ele>
        <time>2013-01-18T14:14:38.000Z</time>
      </trkpt>
      <trkpt lat="43.9308" lon="5.18908">
        <ele>380</ele>
        <time>2013-01-18T14:14:55.000Z</time>
      </trkpt>
      <trkpt lat="43.93074" lon="5.18906">
        <ele>380</ele>
        <time>2013-01-18T14:15:03.000Z</time>
      </trkpt>
      <trkpt lat="43.93065" lon="5.189">
        <ele>380</ele>
        <time>2013-01-18T14:15:12.000Z</time>
      </trkpt>
      <trkpt lat="43.9306" lon="5.18897">
        <ele>381</ele>
        <time>2013-01-18T14:15:19.000Z</time>
      </trkpt>
      <trkpt lat="43.93056" lon="5.18891">
        <ele>382</ele>
        <time>2013-01-18T14:15:25.000Z</time>
      </trkpt>
      <trkpt lat="43.93038" lon="5.18877">
        <ele>382</ele>
        <time>2013-01-18T14:15:46.000Z</time>
      </trkpt>
      <trkpt lat="43.93031" lon="5.18871">
        <ele>379</ele>
        <time>2013-01-18T14:16:38.000Z</time>
      </trkpt>
      <trkpt lat="43.93033" lon="5.1888">
        <ele>379</ele>
        <time>2013-01-18T14:18:03.000Z</time>
      </trkpt>
      <trkpt lat="43.93041" lon="5.1889">
        <ele>379</ele>
        <time>2013-01-18T14:18:23.000Z</time>
      </trkpt>
      <trkpt lat="43.93049" lon="5.1889">
        <ele>372</ele>
        <time>2013-01-18T14:18:58.000Z</time>
      </trkpt>
      <trkpt lat="43.93054" lon="5.18894">
        <ele>370</ele>
        <time>2013-01-18T14:19:13.000Z</time>
      </trkpt>
      <trkpt lat="43.93065" lon="5.189">
        <ele>382</ele>
        <time>2013-01-18T14:20:20.000Z</time>
      </trkpt>
      <trkpt lat="43.93071" lon="5.18902">
        <ele>381</ele>
        <time>2013-01-18T14:20:33.000Z</time>
      </trkpt>
      <trkpt lat="43.93078" lon="5.18904">
        <ele>380</ele>
        <time>2013-01-18T14:20:50.000Z</time>
      </trkpt>
      <trkpt lat="43.9308" lon="5.18908">
        <ele>375</ele>
        <time>2013-01-18T14:24:57.000Z</time>
      </trkpt>
      <trkpt lat="43.9308" lon="5.18901">
        <ele>376</ele>
        <time>2013-01-18T14:28:42.000Z</time>
      </trkpt>
      <trkpt lat="43.93081" lon="5.18908">
        <ele>375</ele>
        <time>2013-01-18T14:29:30.000Z</time>
      </trkpt>
      <trkpt lat="43.93093" lon="5.18913">
        <ele>375</ele>
        <time>2013-01-18T14:29:59.000Z</time>
      </trkpt>
      <trkpt lat="43.93096" lon="5.1891">
        <ele>380</ele>
        <time>2013-01-18T14:30:59.000Z</time>
      </trkpt>
      <trkpt lat="43.93092" lon="5.18909">
        <ele>379</ele>
        <time>2013-01-18T14:32:24.000Z</time>
      </trkpt>
      <trkpt lat="43.93099" lon="5.18912">
        <ele>379</ele>
        <time>2013-01-18T14:32:30.000Z</time>
      </trkpt>
      <trkpt lat="43.931" lon="5.18912">
        <ele>376</ele>
        <time>2013-01-18T14:33:57.000Z</time>
      </trkpt>
    </trkseg>
  </trk>
</gpx>